MSC Annamaria — H3HN — position and weather

sailwx.info

Track history (hours):
 
Tides and Currents Weather Stations Pressure Air Temp Water Temp Dewpoint Dewpoint Depression Visibility Wind Speed Wind Dir Waves Ship Positions

MSC Annamaria

Last reported at 2017-Dec-11 12:00 UTC. Time now 2017-Dec-14 00:08 UTC.
Position N 44°07' E 029°31'.

Length 188 m; draft 10.6 m.

Type: Ship (hazmat cat B). MMSI: 353852000.

Date/timePositionNaut miles runAvg speedWind from/ knotsBaromVisibWave heightAir tempDewpointWater temp
2017-Dec-11 12:00N 44°07' E 029°31'713.5
2017-Dec-11 11:31N 44°01' E 029°26'713.5
2017-Dec-11 11:01N 43°55' E 029°22'713.5
2017-Dec-11 10:31N 43°50' E 029°16'713.6
2017-Dec-11 10:01N 43°44' E 029°11'713.8
2017-Dec-11 09:31N 43°38' E 029°06'714.0
2017-Dec-11 09:01N 43°32' E 029°01'714.3
2017-Dec-11 08:30N 43°26' E 028°56'147 4.6
2017-Dec-10 00:42N 40°59' E 028°60'2 7.9
2017-Dec-10 00:31N 40°58' E 028°60'3 5.9
2017-Dec-10 00:00N 40°55' E 028°58'4 7.9
2017-Dec-09 23:30N 40°52' E 028°55'1 2.2
2017-Dec-09 23:01N 40°52' E 028°56'1 1.2
2017-Dec-09 22:30N 40°51' E 028°56'1 1.2
2017-Dec-09 22:01N 40°51' E 028°55'1 1.3
2017-Dec-09 21:29N 40°51' E 028°54'1 1.1
2017-Dec-09 21:01N 40°50' E 028°54'1 1.0
2017-Dec-09 20:18N 40°50' E 028°53'1 0.8
2017-Dec-09 19:22N 40°49' E 028°52'0 0.9
2017-Dec-09 19:00N 40°49' E 028°52'1 1.0
2017-Dec-09 18:17N 40°49' E 028°51'0 1.0
2017-Dec-09 18:00N 40°49' E 028°51'1 1.1
2017-Dec-09 17:22N 40°48' E 028°50'0 1.1
2017-Dec-09 17:00N 40°48' E 028°50'1 0.7
2017-Dec-09 16:04N 40°47' E 028°49'1 7.4
2017-Dec-09 15:54N 40°47' E 028°51'512.3
2017-Dec-09 15:31N 40°47' E 028°57'612.8
2017-Dec-09 15:00N 40°46' E 029°05'612.8
2017-Dec-09 14:31N 40°44' E 029°14'612.1
2017-Dec-09 14:01N 40°45' E 029°22'277 6.4
2017-Dec-07 18:52N 37°57' E 024°37'512.2
2017-Dec-07 18:30N 37°53' E 024°33'612.2
2017-Dec-07 18:00N 37°49' E 024°27'713.1
2017-Dec-07 17:30N 37°45' E 024°21'712.9
2017-Dec-07 17:00N 37°40' E 024°15'613.1
2017-Dec-07 16:30N 37°34' E 024°12'713.2
2017-Dec-07 16:00N 37°29' E 024°08'713.0
2017-Dec-07 15:30N 37°23' E 024°04'713.4
2017-Dec-07 14:59N 37°17' E 023°60'613.0
2017-Dec-07 14:30N 37°11' E 023°56'612.5
2017-Dec-07 14:00N 37°05' E 023°53'713.5
2017-Dec-07 13:30N 36°59' E 023°50'714.4
2017-Dec-07 13:00N 36°53' E 023°45'1612.5
2017-Dec-07 11:45N 36°39' E 023°35'  
2017-Dec-04 10:00N 38°28' E 015°54'0 0.0
2017-Dec-04 09:22N 38°28' E 015°54'0 0.0
2017-Dec-04 09:00N 38°28' E 015°54'0 0.1
2017-Dec-04 08:31N 38°28' E 015°54'1 2.9
2017-Dec-04 08:00N 38°27' E 015°53'2 2.4
2017-Dec-04 07:13N 38°27' E 015°50'0 1.2
2017-Dec-04 06:59N 38°27' E 015°51'4 7.6
2017-Dec-04 06:30N 38°28' E 015°46'713.5
2017-Dec-04 06:00N 38°30' E 015°38'4 7.5
2017-Dec-04 05:30N 38°31' E 015°33'0 0.6
2017-Dec-04 05:00N 38°31' E 015°34'0 0.6
2017-Dec-04 04:30N 38°31' E 015°34'0 0.6
2017-Dec-04 04:00N 38°31' E 015°34'0 0.6
2017-Dec-04 03:30N 38°31' E 015°35'0 0.5
2017-Dec-04 02:59N 38°30' E 015°35'0 0.4
2017-Dec-04 02:30N 38°31' E 015°35'0 0.3
2017-Dec-04 01:58N 38°30' E 015°35'0 0.8
2017-Dec-04 01:30N 38°30' E 015°36'0 0.4
2017-Dec-04 01:00N 38°30' E 015°36'0 0.6
2017-Dec-04 00:22N 38°30' E 015°36'0 0.7
2017-Dec-03 23:59N 38°31' E 015°36'0 0.7
2017-Dec-03 23:28N 38°31' E 015°36'0 0.9
2017-Dec-03 23:00N 38°31' E 015°35'1 1.3
2017-Dec-03 22:29N 38°32' E 015°35'0 0.6
2017-Dec-03 21:57N 38°31' E 015°34'0 0.5
2017-Dec-03 21:29N 38°31' E 015°34'1 1.7
2017-Dec-03 21:00N 38°31' E 015°33'510.5
2017-Dec-03 20:29N 38°31' E 015°40'510.2
2017-Dec-03 19:57N 38°31' E 015°47'2 3.8
2017-Dec-03 19:30N 38°31' E 015°49'1 1.5
2017-Dec-03 19:00N 38°30' E 015°48'1 1.6
2017-Dec-03 18:30N 38°30' E 015°47'1 1.5
2017-Dec-03 17:59N 38°30' E 015°46'1 1.6
2017-Dec-03 17:30N 38°29' E 015°46'1 1.1
2017-Dec-03 16:23N 38°29' E 015°44'1 0.9
2017-Dec-03 15:32N 38°29' E 015°43'0 1.0
2017-Dec-03 15:30N 38°29' E 015°43'6 1.1
2017-Dec-03 10:20N 38°29' E 015°36'0 1.2
2017-Dec-03 10:00N 38°29' E 015°35'0 0.9
2017-Dec-03 09:28N 38°29' E 015°35'4 8.6
2017-Dec-03 08:57N 38°27' E 015°41'613.2
2017-Dec-03 08:30N 38°23' E 015°45'1111.2
2017-Dec-03 07:30N 38°13' E 015°37'612.4
2017-Dec-03 07:00N 38°07' E 015°37'611.5
2017-Dec-03 06:30N 38°01' E 015°36'612.6
2017-Dec-03 06:00N 37°55' E 015°39'612.1
2017-Dec-03 05:30N 37°52' E 015°45'712.9
2017-Dec-03 05:00N 37°50' E 015°53'33411.7
2017-Dec-02 00:31N 36°23' E 022°37'0 9.8
2017-Dec-02 00:30N 36°23' E 022°37'12 9.7
2017-Dec-01 23:17N 36°26' E 022°52'310.1
2017-Dec-01 22:59N 36°26' E 022°55'510.9
2017-Dec-01 22:29N 36°26' E 023°02'510.6
2017-Dec-01 22:00N 36°24' E 023°08'6 9.4
2017-Dec-01 21:24N 36°25' E 023°15'611.0
2017-Dec-01 20:54N 36°30' E 023°19'511.5
2017-Dec-01 20:30N 36°34' E 023°22'1212.3
2017-Dec-01 19:31N 36°44' E 023°30'013.1
2017-Dec-01 19:30N 36°44' E 023°30'1511.8
2017-Dec-01 18:15N 36°57' E 023°39'312.1
2017-Dec-01 18:00N 36°60' E 023°41'612.0
2017-Dec-01 17:30N 37°05' E 023°45'612.1
2017-Dec-01 17:00N 37°10' E 023°48'612.3
2017-Dec-01 16:30N 37°16' E 023°52'712.5
2017-Dec-01 15:59N 37°21' E 023°56'612.3
2017-Dec-01 15:30N 37°26' E 024°00'612.6
2017-Dec-01 15:00N 37°32' E 024°04'612.2
2017-Dec-01 14:30N 37°37' E 024°09'1012.3
2017-Dec-01 13:42N 37°44' E 024°17'212.3
2017-Dec-01 13:30N 37°45' E 024°20'612.5
2017-Dec-01 13:00N 37°49' E 024°26'612.4
2017-Dec-01 12:30N 37°53' E 024°32'611.8
2017-Dec-01 12:00N 37°58' E 024°36'  
Track history (hours):
 
Tides and Currents Weather Stations Pressure Air Temp Water Temp Dewpoint Dewpoint Depression Visibility Wind Speed Wind Dir Waves Ship Positions

MSC Annamaria

Last reported at 2017-Dec-11 12:00 UTC. Time now 2017-Dec-14 00:08 UTC.
Position N 44°07' E 029°31'.

Length 188 m; draft 10.6 m.

Type: Ship (hazmat cat B). MMSI: 353852000.

Date/timePositionNaut miles runAvg speedWind from/ knotsBaromVisibWave heightAir tempDewpointWater temp
2017-Dec-11 12:00N 44°07' E 029°31'713.5
2017-Dec-11 11:31N 44°01' E 029°26'713.5
2017-Dec-11 11:01N 43°55' E 029°22'713.5
2017-Dec-11 10:31N 43°50' E 029°16'713.6
2017-Dec-11 10:01N 43°44' E 029°11'713.8
2017-Dec-11 09:31N 43°38' E 029°06'714.0
2017-Dec-11 09:01N 43°32' E 029°01'714.3
2017-Dec-11 08:30N 43°26' E 028°56'147 4.6
2017-Dec-10 00:42N 40°59' E 028°60'2 7.9
2017-Dec-10 00:31N 40°58' E 028°60'3 5.9
2017-Dec-10 00:00N 40°55' E 028°58'4 7.9
2017-Dec-09 23:30N 40°52' E 028°55'1 2.2
2017-Dec-09 23:01N 40°52' E 028°56'1 1.2
2017-Dec-09 22:30N 40°51' E 028°56'1 1.2
2017-Dec-09 22:01N 40°51' E 028°55'1 1.3
2017-Dec-09 21:29N 40°51' E 028°54'1 1.1
2017-Dec-09 21:01N 40°50' E 028°54'1 1.0
2017-Dec-09 20:18N 40°50' E 028°53'1 0.8
2017-Dec-09 19:22N 40°49' E 028°52'0 0.9
2017-Dec-09 19:00N 40°49' E 028°52'1 1.0
2017-Dec-09 18:17N 40°49' E 028°51'0 1.0
2017-Dec-09 18:00N 40°49' E 028°51'1 1.1
2017-Dec-09 17:22N 40°48' E 028°50'0 1.1
2017-Dec-09 17:00N 40°48' E 028°50'1 0.7
2017-Dec-09 16:04N 40°47' E 028°49'1 7.4
2017-Dec-09 15:54N 40°47' E 028°51'512.3
2017-Dec-09 15:31N 40°47' E 028°57'612.8
2017-Dec-09 15:00N 40°46' E 029°05'612.8
2017-Dec-09 14:31N 40°44' E 029°14'612.1
2017-Dec-09 14:01N 40°45' E 029°22'277 6.4
2017-Dec-07 18:52N 37°57' E 024°37'512.2
2017-Dec-07 18:30N 37°53' E 024°33'612.2
2017-Dec-07 18:00N 37°49' E 024°27'713.1
2017-Dec-07 17:30N 37°45' E 024°21'712.9
2017-Dec-07 17:00N 37°40' E 024°15'613.1
2017-Dec-07 16:30N 37°34' E 024°12'713.2
2017-Dec-07 16:00N 37°29' E 024°08'713.0
2017-Dec-07 15:30N 37°23' E 024°04'713.4
2017-Dec-07 14:59N 37°17' E 023°60'613.0
2017-Dec-07 14:30N 37°11' E 023°56'612.5
2017-Dec-07 14:00N 37°05' E 023°53'713.5
2017-Dec-07 13:30N 36°59' E 023°50'714.4
2017-Dec-07 13:00N 36°53' E 023°45'1612.5
2017-Dec-07 11:45N 36°39' E 023°35'  
2017-Dec-04 10:00N 38°28' E 015°54'0 0.0
2017-Dec-04 09:22N 38°28' E 015°54'0 0.0
2017-Dec-04 09:00N 38°28' E 015°54'0 0.1
2017-Dec-04 08:31N 38°28' E 015°54'1 2.9
2017-Dec-04 08:00N 38°27' E 015°53'2 2.4
2017-Dec-04 07:13N 38°27' E 015°50'0 1.2
2017-Dec-04 06:59N 38°27' E 015°51'4 7.6
2017-Dec-04 06:30N 38°28' E 015°46'713.5
2017-Dec-04 06:00N 38°30' E 015°38'4 7.5
2017-Dec-04 05:30N 38°31' E 015°33'0 0.6
2017-Dec-04 05:00N 38°31' E 015°34'0 0.6
2017-Dec-04 04:30N 38°31' E 015°34'0 0.6
2017-Dec-04 04:00N 38°31' E 015°34'0 0.6
2017-Dec-04 03:30N 38°31' E 015°35'0 0.5
2017-Dec-04 02:59N 38°30' E 015°35'0 0.4
2017-Dec-04 02:30N 38°31' E 015°35'0 0.3
2017-Dec-04 01:58N 38°30' E 015°35'0 0.8
2017-Dec-04 01:30N 38°30' E 015°36'0 0.4
2017-Dec-04 01:00N 38°30' E 015°36'0 0.6
2017-Dec-04 00:22N 38°30' E 015°36'0 0.7
2017-Dec-03 23:59N 38°31' E 015°36'0 0.7
2017-Dec-03 23:28N 38°31' E 015°36'0 0.9
2017-Dec-03 23:00N 38°31' E 015°35'1 1.3
2017-Dec-03 22:29N 38°32' E 015°35'0 0.6
2017-Dec-03 21:57N 38°31' E 015°34'0 0.5
2017-Dec-03 21:29N 38°31' E 015°34'1 1.7
2017-Dec-03 21:00N 38°31' E 015°33'510.5
2017-Dec-03 20:29N 38°31' E 015°40'510.2
2017-Dec-03 19:57N 38°31' E 015°47'2 3.8
2017-Dec-03 19:30N 38°31' E 015°49'1 1.5
2017-Dec-03 19:00N 38°30' E 015°48'1 1.6
2017-Dec-03 18:30N 38°30' E 015°47'1 1.5
2017-Dec-03 17:59N 38°30' E 015°46'1 1.6
2017-Dec-03 17:30N 38°29' E 015°46'1 1.1
2017-Dec-03 16:23N 38°29' E 015°44'1 0.9
2017-Dec-03 15:32N 38°29' E 015°43'0 1.0
2017-Dec-03 15:30N 38°29' E 015°43'6 1.1
2017-Dec-03 10:20N 38°29' E 015°36'0 1.2
2017-Dec-03 10:00N 38°29' E 015°35'0 0.9
2017-Dec-03 09:28N 38°29' E 015°35'4 8.6
2017-Dec-03 08:57N 38°27' E 015°41'613.2
2017-Dec-03 08:30N 38°23' E 015°45'1111.2
2017-Dec-03 07:30N 38°13' E 015°37'612.4
2017-Dec-03 07:00N 38°07' E 015°37'611.5
2017-Dec-03 06:30N 38°01' E 015°36'612.6
2017-Dec-03 06:00N 37°55' E 015°39'612.1
2017-Dec-03 05:30N 37°52' E 015°45'712.9
2017-Dec-03 05:00N 37°50' E 015°53'33411.7
2017-Dec-02 00:31N 36°23' E 022°37'0 9.8
2017-Dec-02 00:30N 36°23' E 022°37'12 9.7
2017-Dec-01 23:17N 36°26' E 022°52'310.1
2017-Dec-01 22:59N 36°26' E 022°55'510.9
2017-Dec-01 22:29N 36°26' E 023°02'510.6
2017-Dec-01 22:00N 36°24' E 023°08'6 9.4
2017-Dec-01 21:24N 36°25' E 023°15'611.0
2017-Dec-01 20:54N 36°30' E 023°19'511.5
2017-Dec-01 20:30N 36°34' E 023°22'1212.3
2017-Dec-01 19:31N 36°44' E 023°30'013.1
2017-Dec-01 19:30N 36°44' E 023°30'1511.8
2017-Dec-01 18:15N 36°57' E 023°39'312.1
2017-Dec-01 18:00N 36°60' E 023°41'612.0
2017-Dec-01 17:30N 37°05' E 023°45'612.1
2017-Dec-01 17:00N 37°10' E 023°48'612.3
2017-Dec-01 16:30N 37°16' E 023°52'712.5
2017-Dec-01 15:59N 37°21' E 023°56'612.3
2017-Dec-01 15:30N 37°26' E 024°00'612.6
2017-Dec-01 15:00N 37°32' E 024°04'612.2
2017-Dec-01 14:30N 37°37' E 024°09'1012.3
2017-Dec-01 13:42N 37°44' E 024°17'212.3
2017-Dec-01 13:30N 37°45' E 024°20'612.5
2017-Dec-01 13:00N 37°49' E 024°26'612.4
2017-Dec-01 12:30N 37°53' E 024°32'611.8
2017-Dec-01 12:00N 37°58' E 024°36'  

Dump ship's entire track history